Time;durP1;ratioP1;P1;durP2;ratioP2;P2;SDS_P1;SDS_P2;PMS_P1;PMS_P2;Temp;Humidity;BMP_temperature;BMP_pressure;BME280_temperature;BME280_humidity;BME280_pressure;Samples;Min_cycle;Max_cycle;Signal;HPM_P1;HPM_P2
2023/09/06 00:00:37;;;;;;;43.20;30.20;;;;;;;-128.00;-1.00;-1.00;19017;318;7505604;-31
2023/09/06 00:03:03;;;;;;;46.70;35.80;;;;;;;-128.00;-1.00;-1.00;18996;319;7506134;-35
2023/09/06 00:05:29;;;;;;;51.40;39.00;;;;;;;-128.00;-1.00;-1.00;18999;318;7505036;-34
2023/09/06 00:07:55;;;;;;;27.60;20.30;;;;;;;-128.00;-1.00;-1.00;19028;319;7505809;-35
2023/09/06 00:10:21;;;;;;;25.10;14.30;;;;;;;-128.00;-1.00;-1.00;18994;322;7504612;-31
2023/09/06 00:12:46;;;;;;;14.60;11.90;;;;;;;-128.00;-1.00;-1.00;18985;319;7504859;-35
2023/09/06 00:15:13;;;;;;;14.90;9.90;;;;;;;-128.00;-1.00;-1.00;19396;319;7505227;-35
2023/09/06 00:17:41;;;;;;;11.30;7.70;;;;;;;-128.00;-1.00;-1.00;18994;319;7507220;-30
2023/09/06 00:22:46;;;;;;;9.00;8.00;;;;;;;-128.00;-1.00;-1.00;18971;318;7504883;-31
2023/09/06 00:25:11;;;;;;;11.10;7.70;;;;;;;-128.00;-1.00;-1.00;18997;319;7505070;-32
2023/09/06 00:27:37;;;;;;;12.10;8.30;;;;;;;-128.00;-1.00;-1.00;19401;325;7505261;-35
2023/09/06 00:30:04;;;;;;;14.00;8.50;;;;;;;-128.00;-1.00;-1.00;19446;318;7504996;-31
2023/09/06 00:32:30;;;;;;;12.00;7.50;;;;;;;-128.00;-1.00;-1.00;19000;325;7505017;-31
2023/09/06 00:34:56;;;;;;;16.50;8.40;;;;;;;-128.00;-1.00;-1.00;19465;324;7505793;-31
2023/09/06 00:37:22;;;;;;;11.60;9.40;;;;;;;-128.00;-1.00;-1.00;19383;324;7505980;-35
2023/09/06 01:19:18;;;;;;;80.90;45.80;;;;;;;-100.39;19.20;20032.56;20199;317;7636907;-31
2023/09/06 01:21:49;;;;;;;17.50;11.20;;;;;;;-128.00;-1.00;-1.00;18539;317;7504613;-34
2023/09/06 01:24:16;;;;;;;19.70;13.30;;;;;;;-128.00;-1.00;-1.00;19023;317;7504490;-32
2023/09/06 01:26:41;;;;;;;33.20;18.60;;;;;;;-128.00;-1.00;-1.00;19063;317;7506307;-33
2023/09/06 01:29:07;;;;;;;17.80;9.80;;;;;;;-128.00;-1.00;-1.00;19057;321;7506450;-32
2023/09/06 01:31:33;;;;;;;11.20;9.30;;;;;;;-128.00;-1.00;-1.00;19048;322;7505743;-33
2023/09/06 01:33:59;;;;;;;84.10;50.50;;;;;;;-128.00;-1.00;-1.00;19464;322;7505365;-33
2023/09/06 01:36:25;;;;;;;58.60;35.00;;;;;;;-128.00;-1.00;-1.00;19504;317;7504820;-36
2023/09/06 01:38:51;;;;;;;98.80;60.60;;;;;;;-128.00;-1.00;-1.00;19091;322;7504985;-35
2023/09/06 01:41:17;;;;;;;63.20;35.00;;;;;;;-128.00;-1.00;-1.00;19081;321;7504821;-31
2023/09/06 01:43:42;;;;;;;14.60;8.30;;;;;;;-128.00;-1.00;-1.00;19060;317;7505077;-34
2023/09/06 01:46:08;;;;;;;50.20;28.50;;;;;;;-128.00;-1.00;-1.00;19061;322;7505304;-35
2023/09/06 01:48:36;;;;;;;18.10;14.70;;;;;;;-128.00;-1.00;-1.00;19477;322;7504640;-31
2023/09/06 01:51:03;;;;;;;16.40;10.10;;;;;;;-128.00;-1.00;-1.00;19009;323;7505147;-31
2023/09/06 01:53:29;;;;;;;24.00;10.90;;;;;;;-128.00;-1.00;-1.00;19000;318;7505335;-34
2023/09/06 01:55:54;;;;;;;17.10;8.40;;;;;;;-128.00;-1.00;-1.00;19076;317;7506313;-35
2023/09/06 01:58:20;;;;;;;11.00;9.30;;;;;;;-128.00;-1.00;-1.00;19075;317;7504907;-35
2023/09/06 02:00:46;;;;;;;11.30;9.30;;;;;;;-128.00;-1.00;-1.00;19072;317;7506086;-31
2023/09/06 02:03:13;;;;;;;13.00;8.30;;;;;;;-128.00;-1.00;-1.00;19058;317;7504983;-35
2023/09/06 02:05:43;;;;;;;9.70;7.00;;;;;;;-128.00;-1.00;-1.00;19047;321;7504749;-34
2023/09/06 02:08:10;;;;;;;6.20;5.40;;;;;;;-128.00;-1.00;-1.00;19069;317;7505715;-35
2023/09/06 02:10:36;;;;;;;7.70;6.40;;;;;;;-128.00;-1.00;-1.00;19050;316;7506611;-32
2023/09/06 02:13:01;;;;;;;9.30;5.90;;;;;;;-128.00;-1.00;-1.00;19064;317;7506378;-32
2023/09/06 02:15:30;;;;;;;8.70;6.30;;;;;;;-128.00;-1.00;-1.00;19491;317;7505205;-32
2023/09/06 02:17:56;;;;;;;8.00;6.00;;;;;;;-128.00;-1.00;-1.00;19047;317;7506048;-32
2023/09/06 02:20:22;;;;;;;14.10;8.20;;;;;;;-128.00;-1.00;-1.00;19081;317;7507229;-36
2023/09/06 02:22:52;;;;;;;7.70;5.50;;;;;;;-128.00;-1.00;-1.00;19081;322;7506256;-36
2023/09/06 02:25:20;;;;;;;7.30;4.10;;;;;;;-128.00;-1.00;-1.00;19067;317;7505184;-32
2023/09/06 02:27:46;;;;;;;13.60;6.80;;;;;;;-128.00;-1.00;-1.00;19055;317;7506303;-36
2023/09/06 02:30:12;;;;;;;17.40;7.30;;;;;;;-128.00;-1.00;-1.00;19031;317;7505332;-32
2023/09/06 02:32:38;;;;;;;9.30;7.50;;;;;;;-128.00;-1.00;-1.00;19036;322;7505254;-36
2023/09/06 02:35:06;;;;;;;10.40;8.20;;;;;;;-128.00;-1.00;-1.00;19071;321;7506045;-36
2023/09/06 02:37:33;;;;;;;14.80;9.50;;;;;;;-128.00;-1.00;-1.00;19035;322;7504563;-32
2023/09/06 02:39:59;;;;;;;9.50;8.30;;;;;;;-128.00;-1.00;-1.00;19083;317;7504964;-34
2023/09/06 02:42:25;;;;;;;9.10;7.00;;;;;;;-128.00;-1.00;-1.00;19086;321;7504714;-31
2023/09/06 02:44:51;;;;;;;13.70;10.40;;;;;;;-128.00;-1.00;-1.00;19034;317;7504526;-35
2023/09/06 02:47:17;;;;;;;15.90;10.20;;;;;;;-128.00;-1.00;-1.00;19065;317;7505199;-35
2023/09/06 02:49:45;;;;;;;8.50;6.80;;;;;;;-128.00;-1.00;-1.00;19075;317;7504697;-34
2023/09/06 02:52:20;;;;;;;9.00;7.10;;;;;;;-128.00;-1.00;-1.00;19007;322;7505164;-36
2023/09/06 02:54:47;;;;;;;85.20;55.20;;;;;;;-128.00;-1.00;-1.00;19086;317;7504620;-34
2023/09/06 02:57:14;;;;;;;38.90;25.00;;;;;;;-128.00;-1.00;-1.00;19084;317;7505285;-35
2023/09/06 02:59:40;;;;;;;15.10;10.60;;;;;;;-128.00;-1.00;-1.00;19053;321;7505067;-34
2023/09/06 03:02:05;;;;;;;11.40;9.00;;;;;;;-128.00;-1.00;-1.00;19087;317;7504782;-35
2023/09/06 03:04:37;;;;;;;13.50;10.50;;;;;;;-128.00;-1.00;-1.00;19498;317;7504733;-35
2023/09/06 03:07:07;;;;;;;12.10;7.00;;;;;;;-128.00;-1.00;-1.00;19086;317;7506576;-35
2023/09/06 03:09:35;;;;;;;10.40;8.50;;;;;;;-128.00;-1.00;-1.00;19011;317;7505023;-35
2023/09/06 03:12:11;;;;;;;9.00;8.20;;;;;;;-128.00;-1.00;-1.00;19061;318;7504894;-31
2023/09/06 03:14:43;;;;;;;9.00;6.80;;;;;;;-128.00;-1.00;-1.00;19105;322;7504673;-35
2023/09/06 03:17:10;;;;;;;26.40;16.20;;;;;;;-128.00;-1.00;-1.00;19042;317;7504881;-35
2023/09/06 03:19:41;;;;;;;15.70;10.30;;;;;;;-128.00;-1.00;-1.00;19071;317;7505049;-35
2023/09/06 03:22:09;;;;;;;10.40;6.70;;;;;;;-128.00;-1.00;-1.00;19052;321;7505322;-32
2023/09/06 03:24:40;;;;;;;11.60;7.60;;;;;;;-128.00;-1.00;-1.00;19050;317;7506623;-35
2023/09/06 03:27:07;;;;;;;10.20;7.60;;;;;;;-128.00;-1.00;-1.00;19058;317;7505913;-35
2023/09/06 03:29:36;;;;;;;10.90;8.00;;;;;;;-128.00;-1.00;-1.00;19078;317;7504409;-31
2023/09/06 03:32:07;;;;;;;10.60;8.30;;;;;;;-128.00;-1.00;-1.00;19058;322;7504934;-31
2023/09/06 03:34:37;;;;;;;17.50;13.00;;;;;;;-128.00;-1.00;-1.00;19046;317;7505265;-31
2023/09/06 03:37:08;;;;;;;36.80;23.00;;;;;;;-128.00;-1.00;-1.00;19098;317;7506102;-30
2023/09/06 03:39:37;;;;;;;6.50;4.10;;;;;;;-128.00;-1.00;-1.00;19031;318;7506528;-31
2023/09/06 03:42:08;;;;;;;10.10;9.00;;;;;;;-128.00;-1.00;-1.00;19061;322;7506219;-31
2023/09/06 03:44:37;;;;;;;17.80;11.80;;;;;;;-128.00;-1.00;-1.00;19047;317;7504503;-35
2023/09/06 03:47:13;;;;;;;11.00;8.10;;;;;;;-128.00;-1.00;-1.00;19050;319;7505517;-30
2023/09/06 03:49:39;;;;;;;10.70;7.40;;;;;;;-128.00;-1.00;-1.00;19068;317;7505577;-34
2023/09/06 03:52:05;;;;;;;14.10;8.90;;;;;;;-128.00;-1.00;-1.00;19058;317;7505524;-30
2023/09/06 03:54:34;;;;;;;14.50;10.70;;;;;;;-128.00;-1.00;-1.00;19054;317;7505285;-31
2023/09/06 03:57:04;;;;;;;10.50;8.10;;;;;;;-128.00;-1.00;-1.00;19053;317;7504758;-34
2023/09/06 03:59:31;;;;;;;12.70;8.50;;;;;;;-128.00;-1.00;-1.00;19083;317;7506070;-30
2023/09/06 04:01:57;;;;;;;8.80;7.50;;;;;;;-128.00;-1.00;-1.00;19075;317;7505284;-32
2023/09/06 04:04:23;;;;;;;11.50;7.80;;;;;;;-128.00;-1.00;-1.00;19073;317;7505361;-31
2023/09/06 04:06:48;;;;;;;10.00;7.90;;;;;;;-128.00;-1.00;-1.00;19068;317;7504695;-35
2023/09/06 04:09:14;;;;;;;12.40;9.00;;;;;;;-128.00;-1.00;-1.00;19062;317;7505152;-35
2023/09/06 04:11:40;;;;;;;10.10;8.20;;;;;;;-128.00;-1.00;-1.00;19069;317;7505293;-31
2023/09/06 04:14:07;;;;;;;11.50;7.90;;;;;;;-128.00;-1.00;-1.00;19055;317;7504862;-31
2023/09/06 04:16:37;;;;;;;7.70;6.20;;;;;;;-128.00;-1.00;-1.00;19065;321;7504723;-30
2023/09/06 04:19:04;;;;;;;11.20;6.70;;;;;;;-128.00;-1.00;-1.00;19051;317;7504346;-31
2023/09/06 04:21:30;;;;;;;17.80;12.00;;;;;;;-128.00;-1.00;-1.00;19070;321;7506345;-35
2023/09/06 04:23:56;;;;;;;17.00;10.00;;;;;;;-128.00;-1.00;-1.00;19054;317;7505112;-31
2023/09/06 04:26:21;;;;;;;16.40;9.10;;;;;;;-128.00;-1.00;-1.00;19022;322;7504911;-35
2023/09/06 04:28:48;;;;;;;18.60;12.70;;;;;;;-128.00;-1.00;-1.00;19479;317;7504732;-36
2023/09/06 04:31:17;;;;;;;15.10;10.40;;;;;;;-128.00;-1.00;-1.00;19490;317;7504784;-32
2023/09/06 04:33:44;;;;;;;21.50;11.00;;;;;;;-128.00;-1.00;-1.00;19069;321;7504783;-30
2023/09/06 04:36:10;;;;;;;17.40;11.40;;;;;;;-128.00;-1.00;-1.00;19057;322;7504679;-30
2023/09/06 04:38:36;;;;;;;9.70;8.00;;;;;;;-128.00;-1.00;-1.00;19057;317;7505798;-30
2023/09/06 04:41:02;;;;;;;13.50;9.90;;;;;;;-128.00;-1.00;-1.00;19497;317;7504323;-32
2023/09/06 04:43:28;;;;;;;19.80;11.90;;;;;;;-128.00;-1.00;-1.00;19495;322;7505102;-32
2023/09/06 04:45:54;;;;;;;15.20;9.60;;;;;;;-128.00;-1.00;-1.00;19086;321;7504933;-35
2023/09/06 04:48:23;;;;;;;13.80;9.40;;;;;;;-128.00;-1.00;-1.00;19083;317;7504730;-30
2023/09/06 04:50:49;;;;;;;17.60;11.90;;;;;;;-128.00;-1.00;-1.00;19064;317;7504974;-30
2023/09/06 04:53:17;;;;;;;91.00;51.90;;;;;;;-128.00;-1.00;-1.00;19079;322;7505049;-31
2023/09/06 04:55:44;;;;;;;26.30;16.50;;;;;;;-128.00;-1.00;-1.00;19064;317;7505309;-34
2023/09/06 04:58:10;;;;;;;10.40;7.50;;;;;;;-128.00;-1.00;-1.00;19080;317;7506303;-36
2023/09/06 05:00:38;;;;;;;10.90;8.90;;;;;;;-128.00;-1.00;-1.00;19066;317;7504954;-36
2023/09/06 05:03:08;;;;;;;11.30;8.40;;;;;;;-128.00;-1.00;-1.00;19069;317;7506271;-36
2023/09/06 05:05:35;;;;;;;28.90;18.20;;;;;;;-128.00;-1.00;-1.00;19083;317;7506268;-37
2023/09/06 05:08:01;;;;;;;14.30;10.10;;;;;;;-128.00;-1.00;-1.00;19005;319;7506204;-32
2023/09/06 05:10:26;;;;;;;10.90;8.70;;;;;;;-128.00;-1.00;-1.00;19065;317;7505066;-33
2023/09/06 05:12:52;;;;;;;15.20;10.70;;;;;;;-128.00;-1.00;-1.00;19060;317;7504507;-33
2023/09/06 05:15:18;;;;;;;27.00;15.20;;;;;;;-128.00;-1.00;-1.00;19500;317;7505011;-32
2023/09/06 05:17:44;;;;;;;14.20;9.60;;;;;;;-128.00;-1.00;-1.00;19478;322;7505235;-36
2023/09/06 05:20:30;;;;;;;12.30;9.50;;;;;;;-128.00;-1.00;-1.00;19494;317;7504760;-34
2023/09/06 05:23:03;;;;;;;26.70;12.50;;;;;;;-128.00;-1.00;-1.00;19084;317;7504938;-31
2023/09/06 05:25:29;;;;;;;13.10;11.70;;;;;;;-128.00;-1.00;-1.00;19051;317;7505144;-31
2023/09/06 05:28:00;;;;;;;11.70;7.10;;;;;;;-128.00;-1.00;-1.00;19076;322;7505244;-30
2023/09/06 05:30:26;;;;;;;11.00;8.20;;;;;;;-128.00;-1.00;-1.00;19048;322;7504909;-35
2023/09/06 05:32:53;;;;;;;10.30;6.70;;;;;;;-128.00;-1.00;-1.00;19070;317;7504391;-31
2023/09/06 05:35:19;;;;;;;11.10;7.40;;;;;;;-128.00;-1.00;-1.00;19064;321;7505116;-31
2023/09/06 05:37:44;;;;;;;8.30;5.40;;;;;;;-128.00;-1.00;-1.00;19066;322;7504813;-35
2023/09/06 05:40:12;;;;;;;8.60;6.30;;;;;;;-128.00;-1.00;-1.00;19053;317;7506265;-35
2023/09/06 05:42:39;;;;;;;9.10;6.80;;;;;;;-128.00;-1.00;-1.00;19054;317;7505073;-31
2023/09/06 05:45:07;;;;;;;8.90;6.20;;;;;;;-128.00;-1.00;-1.00;19070;318;7504804;-31
2023/09/06 05:47:35;;;;;;;8.40;6.80;;;;;;;-128.00;-1.00;-1.00;19016;317;7504550;-31
2023/09/06 05:50:02;;;;;;;7.80;5.10;;;;;;;-128.00;-1.00;-1.00;19057;317;7506384;-35
2023/09/06 05:52:28;;;;;;;6.90;6.20;;;;;;;-128.00;-1.00;-1.00;19073;317;7504788;-35
2023/09/06 05:54:54;;;;;;;7.30;6.00;;;;;;;-128.00;-1.00;-1.00;19063;321;7506004;-35
2023/09/06 05:57:20;;;;;;;9.10;7.40;;;;;;;-128.00;-1.00;-1.00;19094;317;7504407;-36
2023/09/06 05:59:46;;;;;;;12.20;7.70;;;;;;;-128.00;-1.00;-1.00;19498;317;7504667;-32
2023/09/06 06:02:14;;;;;;;13.70;7.40;;;;;;;-128.00;-1.00;-1.00;19492;322;7504595;-31
2023/09/06 06:04:41;;;;;;;10.20;6.50;;;;;;;-128.00;-1.00;-1.00;19056;321;7507244;-30
2023/09/06 06:07:07;;;;;;;9.10;6.50;;;;;;;-128.00;-1.00;-1.00;19073;321;7505504;-31
2023/09/06 06:09:33;;;;;;;11.20;7.10;;;;;;;-128.00;-1.00;-1.00;19495;317;7504938;-37
2023/09/06 06:12:03;;;;;;;11.30;7.10;;;;;;;-128.00;-1.00;-1.00;19514;317;7505767;-33
2023/09/06 06:14:30;;;;;;;13.50;8.40;;;;;;;-128.00;-1.00;-1.00;19099;317;7504557;-35
2023/09/06 06:16:57;;;;;;;9.70;6.30;;;;;;;-128.00;-1.00;-1.00;19073;317;7507001;-31
2023/09/06 06:19:30;;;;;;;9.70;6.90;;;;;;;-128.00;-1.00;-1.00;19077;317;7505000;-35
2023/09/06 06:21:56;;;;;;;11.30;7.70;;;;;;;-128.00;-1.00;-1.00;19496;321;7505254;-31
2023/09/06 06:24:22;;;;;;;12.20;7.40;;;;;;;-128.00;-1.00;-1.00;19507;317;7505458;-32
2023/09/06 06:26:49;;;;;;;9.80;6.40;;;;;;;-128.00;-1.00;-1.00;19074;317;7506653;-32
2023/09/06 06:29:14;;;;;;;8.50;5.50;;;;;;;-128.00;-1.00;-1.00;19089;321;7505094;-35
2023/09/06 06:31:40;;;;;;;8.40;6.00;;;;;;;-128.00;-1.00;-1.00;19079;317;7506611;-32
2023/09/06 06:34:06;;;;;;;10.20;6.70;;;;;;;-128.00;-1.00;-1.00;19083;321;7504522;-36
2023/09/06 06:36:31;;;;;;;7.00;5.30;;;;;;;-128.00;-1.00;-1.00;19066;317;7504921;-32
2023/09/06 06:38:57;;;;;;;14.40;6.00;;;;;;;-128.00;-1.00;-1.00;19083;317;7504694;-34
2023/09/06 06:41:23;;;;;;;14.00;6.60;;;;;;;-128.00;-1.00;-1.00;19515;317;7505290;-36
2023/09/06 06:43:49;;;;;;;8.80;5.70;;;;;;;-128.00;-1.00;-1.00;19507;321;7504953;-36
2023/09/06 06:46:28;;;;;;;10.10;6.30;;;;;;;-128.00;-1.00;-1.00;19479;321;7505780;-32
2023/09/06 06:48:55;;;;;;;5.40;4.80;;;;;;;-128.00;-1.00;-1.00;19082;317;7504904;-32
2023/09/06 06:51:21;;;;;;;5.70;4.60;;;;;;;-128.00;-1.00;-1.00;19080;317;7504812;-32
2023/09/06 06:53:47;;;;;;;5.80;4.50;;;;;;;-128.00;-1.00;-1.00;19084;317;7505161;-36
2023/09/06 06:56:13;;;;;;;7.50;5.10;;;;;;;-128.00;-1.00;-1.00;19075;317;7504930;-32
2023/09/06 06:58:38;;;;;;;5.90;5.40;;;;;;;-128.00;-1.00;-1.00;19075;322;7505147;-36
2023/09/06 07:01:04;;;;;;;4.90;4.20;;;;;;;-128.00;-1.00;-1.00;19052;317;7504738;-32
2023/09/06 07:03:30;;;;;;;6.60;4.20;;;;;;;-128.00;-1.00;-1.00;19072;317;7506326;-33
2023/09/06 07:05:56;;;;;;;7.80;5.50;;;;;;;-128.00;-1.00;-1.00;19062;317;7505183;-36
2023/09/06 07:08:25;;;;;;;4.10;3.20;;;;;;;-128.00;-1.00;-1.00;20492;317;7504502;-32
2023/09/06 07:10:53;;;;;;;9.80;4.50;;;;;;;-128.00;-1.00;-1.00;40327;317;7504485;-32
2023/09/06 07:13:19;;;;;;;7.60;4.90;;;;;;;-128.00;-1.00;-1.00;19480;322;7505489;-31
2023/09/06 07:15:47;;;;;;;7.30;5.00;;;;;;;-128.00;-1.00;-1.00;27423;321;7504441;-35
2023/09/06 07:18:14;;;;;;;6.10;4.20;;;;;;;-128.00;-1.00;-1.00;19488;317;7505680;-32
2023/09/06 07:20:40;;;;;;;5.70;4.50;;;;;;;-128.00;-1.00;-1.00;19006;317;7504758;-35
2023/09/06 07:23:06;;;;;;;6.90;3.60;;;;;;;-128.00;-1.00;-1.00;19076;321;7504818;-35
2023/09/06 07:25:31;;;;;;;5.40;3.70;;;;;;;-128.00;-1.00;-1.00;19058;322;7505131;-32
2023/09/06 07:27:59;;;;;;;5.80;3.70;;;;;;;-128.00;-1.00;-1.00;18996;322;7504835;-32
2023/09/06 07:30:25;;;;;;;5.10;3.50;;;;;;;-128.00;-1.00;-1.00;19055;317;7504802;-32
2023/09/06 07:32:51;;;;;;;5.80;4.50;;;;;;;-128.00;-1.00;-1.00;19099;317;7504866;-36
2023/09/06 07:35:17;;;;;;;6.70;3.90;;;;;;;-128.00;-1.00;-1.00;19052;317;7506454;-32
2023/09/06 07:37:43;;;;;;;7.50;4.80;;;;;;;-128.00;-1.00;-1.00;19082;317;7504597;-36
2023/09/06 07:40:10;;;;;;;3.20;2.80;;;;;;;-128.00;-1.00;-1.00;19077;317;7505274;-32
2023/09/06 07:42:38;;;;;;;5.40;4.00;;;;;;;-128.00;-1.00;-1.00;19083;317;7506934;-36
2023/09/06 07:45:06;;;;;;;5.10;3.60;;;;;;;-128.00;-1.00;-1.00;19073;322;7504796;-36
2023/09/06 07:47:33;;;;;;;5.40;3.70;;;;;;;-128.00;-1.00;-1.00;19072;317;7506051;-32
2023/09/06 07:49:58;;;;;;;5.50;4.20;;;;;;;-128.00;-1.00;-1.00;19080;322;7506358;-36
2023/09/06 07:52:24;;;;;;;15.30;4.90;;;;;;;-128.00;-1.00;-1.00;19498;317;7504927;-36
2023/09/06 07:54:50;;;;;;;6.90;4.50;;;;;;;-128.00;-1.00;-1.00;19490;318;7505307;-35
2023/09/06 07:57:17;;;;;;;5.20;3.60;;;;;;;-128.00;-1.00;-1.00;19060;317;7504839;-36
2023/09/06 07:59:43;;;;;;;7.10;5.10;;;;;;;-128.00;-1.00;-1.00;19056;317;7504809;-36
2023/09/06 08:02:09;;;;;;;14.50;4.70;;;;;;;-128.00;-1.00;-1.00;19078;317;7507715;-32
2023/09/06 08:04:35;;;;;;;4.70;3.50;;;;;;;-128.00;-1.00;-1.00;19057;317;7505044;-32
2023/09/06 08:07:01;;;;;;;3.60;3.20;;;;;;;-128.00;-1.00;-1.00;100189;317;2056492;-31
2023/09/06 08:09:27;;;;;;;4.40;3.00;;;;;;;-128.00;-1.00;-1.00;100944;317;1003621;-36
2023/09/06 08:11:52;;;;;;;5.80;3.50;;;;;;;-128.00;-1.00;-1.00;100955;317;1003115;-34
2023/09/06 08:14:18;;;;;;;4.90;3.20;;;;;;;-128.00;-1.00;-1.00;101102;317;1003285;-31
2023/09/06 08:16:45;;;;;;;4.30;3.30;;;;;;;-128.00;-1.00;-1.00;101083;317;1004166;-35
2023/09/06 08:19:11;;;;;;;3.50;3.20;;;;;;;-128.00;-1.00;-1.00;101130;317;1002657;-37
2023/09/06 08:21:37;;;;;;;4.20;2.80;;;;;;;-128.00;-1.00;-1.00;101012;317;1003802;-35
2023/09/06 08:24:03;;;;;;;2.50;2.00;;;;;;;-128.00;-1.00;-1.00;81189;317;7503990;-32
2023/09/06 08:26:29;;;;;;;2.50;1.80;;;;;;;-128.00;-1.00;-1.00;19074;317;7505881;-36
2023/09/06 08:28:54;;;;;;;5.30;2.20;;;;;;;-128.00;-1.00;-1.00;19065;322;7504860;-37
2023/09/06 08:31:20;;;;;;;3.30;2.80;;;;;;;-128.00;-1.00;-1.00;19065;317;7504855;-36
2023/09/06 08:33:46;;;;;;;5.30;2.90;;;;;;;-128.00;-1.00;-1.00;19028;318;7505246;-32
2023/09/06 08:36:12;;;;;;;3.50;2.80;;;;;;;-128.00;-1.00;-1.00;19013;318;7504441;-37
2023/09/06 08:38:39;;;;;;;2.70;2.30;;;;;;;-128.00;-1.00;-1.00;20294;322;7504957;-33
2023/09/06 08:41:09;;;;;;;4.90;2.10;;;;;;;-128.00;-1.00;-1.00;19513;317;7504876;-36
2023/09/06 08:43:36;;;;;;;5.20;3.40;;;;;;;-128.00;-1.00;-1.00;19020;317;7506502;-36
2023/09/06 08:46:04;;;;;;;4.00;2.40;;;;;;;-128.00;-1.00;-1.00;19071;317;7505334;-32
2023/09/06 08:48:30;;;;;;;2.70;1.80;;;;;;;-128.00;-1.00;-1.00;19027;322;7504877;-36
2023/09/06 08:50:56;;;;;;;2.60;2.30;;;;;;;-128.00;-1.00;-1.00;79319;317;7504035;-32
2023/09/06 08:53:22;;;;;;;10.30;2.00;;;;;;;-128.00;-1.00;-1.00;101011;317;1002638;-35
2023/09/06 08:55:50;;;;;;;3.00;1.80;;;;;;;-128.00;-1.00;-1.00;96023;317;3004313;-37
2023/09/06 08:58:15;;;;;;;9.90;3.10;;;;;;;-128.00;-1.00;-1.00;101015;317;1003032;-35
2023/09/06 09:00:42;;;;;;;3.00;2.10;;;;;;;-128.00;-1.00;-1.00;101066;317;1003608;-31
2023/09/06 09:03:07;;;;;;;5.30;2.20;;;;;;;-128.00;-1.00;-1.00;100981;317;1003185;-34
2023/09/06 09:05:33;;;;;;;3.20;2.70;;;;;;;-128.00;-1.00;-1.00;101023;317;1003654;-36
2023/09/06 09:07:59;;;;;;;2.20;1.70;;;;;;;-128.00;-1.00;-1.00;101024;317;1004039;-32
2023/09/06 09:10:28;;;;;;;2.30;1.40;;;;;;;-128.00;-1.00;-1.00;101036;317;1004153;-35
2023/09/06 09:12:55;;;;;;;8.40;2.60;;;;;;;-128.00;-1.00;-1.00;101020;317;1004428;-35
2023/09/06 09:15:22;;;;;;;3.90;1.80;;;;;;;-128.00;-1.00;-1.00;101091;317;1003468;-37
2023/09/06 09:17:49;;;;;;;2.10;1.40;;;;;;;-128.00;-1.00;-1.00;100975;317;1004914;-33
2023/09/06 09:20:14;;;;;;;2.60;1.70;;;;;;;-128.00;-1.00;-1.00;101019;317;1002953;-35
2023/09/06 09:22:40;;;;;;;4.90;2.80;;;;;;;-128.00;-1.00;-1.00;100440;317;1004204;-35
2023/09/06 09:27:45;;;;;;;2.60;2.40;;;;;;;-128.00;-1.00;-1.00;101014;317;1003360;-32
2023/09/06 09:30:12;;;;;;;2.00;1.70;;;;;;;-128.00;-1.00;-1.00;101023;317;1003278;-35
2023/09/06 09:32:39;;;;;;;2.10;1.70;;;;;;;-128.00;-1.00;-1.00;101045;317;1003858;-35
2023/09/06 09:35:09;;;;;;;3.00;2.10;;;;;;;-128.00;-1.00;-1.00;101113;317;1004412;-31
2023/09/06 09:37:35;;;;;;;8.20;2.60;;;;;;;-128.00;-1.00;-1.00;101070;317;1003586;-35
2023/09/06 09:40:15;;;;;;;3.40;1.70;;;;;;;-128.00;-1.00;-1.00;101148;317;1004243;-32
2023/09/06 09:42:52;;;;;;;8.50;2.00;;;;;;;-128.00;-1.00;-1.00;101122;317;1002759;-35
2023/09/06 09:45:17;;;;;;;3.90;1.70;;;;;;;-128.00;-1.00;-1.00;101138;317;1003544;-31
2023/09/06 09:47:43;;;;;;;2.80;2.00;;;;;;;-128.00;-1.00;-1.00;101060;317;1003687;-31
2023/09/06 09:50:09;;;;;;;2.60;1.70;;;;;;;-128.00;-1.00;-1.00;101053;317;1004456;-31
2023/09/06 09:52:34;;;;;;;7.50;2.00;;;;;;;-128.00;-1.00;-1.00;101109;317;1003330;-33
2023/09/06 09:55:00;;;;;;;2.30;1.50;;;;;;;-128.00;-1.00;-1.00;101064;317;1003939;-34
2023/09/06 09:57:26;;;;;;;6.10;2.20;;;;;;;-128.00;-1.00;-1.00;101120;317;1003214;-31
2023/09/06 09:59:52;;;;;;;2.90;2.60;;;;;;;-128.00;-1.00;-1.00;101087;317;1004402;-35
2023/09/06 10:02:17;;;;;;;2.10;1.40;;;;;;;-128.00;-1.00;-1.00;101113;317;1003121;-36
2023/09/06 10:04:44;;;;;;;1.60;1.20;;;;;;;-128.00;-1.00;-1.00;101057;317;1003600;-36
2023/09/06 10:07:13;;;;;;;4.70;2.60;;;;;;;-128.00;-1.00;-1.00;101142;317;1003140;-37
2023/09/06 10:09:40;;;;;;;2.50;2.20;;;;;;;-128.00;-1.00;-1.00;101115;317;1003046;-36
2023/09/06 10:12:07;;;;;;;2.60;1.70;;;;;;;-128.00;-1.00;-1.00;101045;317;1002376;-38
2023/09/06 10:14:33;;;;;;;19.80;16.30;;;;;;;-128.00;-1.00;-1.00;100827;317;1004298;-35
2023/09/06 10:16:59;;;;;;;11.50;7.30;;;;;;;-128.00;-1.00;-1.00;65772;317;7506028;-35
2023/09/06 10:19:25;;;;;;;3.60;3.20;;;;;;;-128.00;-1.00;-1.00;101118;317;1003909;-31
2023/09/06 10:21:50;;;;;;;2.00;1.60;;;;;;;-128.00;-1.00;-1.00;101101;317;1002601;-35
2023/09/06 10:24:18;;;;;;;1.70;1.10;;;;;;;-128.00;-1.00;-1.00;101089;317;1003484;-35
2023/09/06 10:26:45;;;;;;;2.90;1.10;;;;;;;-128.00;-1.00;-1.00;100750;317;1003475;-35
2023/09/06 10:29:10;;;;;;;2.60;1.80;;;;;;;-128.00;-1.00;-1.00;101030;317;1002829;-32
2023/09/06 10:31:49;;;;;;;2.50;2.20;;;;;;;-128.00;-1.00;-1.00;101045;317;1002878;-35
2023/09/06 10:34:15;;;;;;;2.70;1.90;;;;;;;-128.00;-1.00;-1.00;101039;317;1003003;-35
2023/09/06 10:36:57;;;;;;;1.90;1.60;;;;;;;-128.00;-1.00;-1.00;100750;317;1002715;-31
2023/09/06 10:39:25;;;;;;;3.40;2.30;;;;;;;-128.00;-1.00;-1.00;101058;317;1002790;-35
2023/09/06 10:42:17;;;;;;;2.10;1.80;;;;;;;-128.00;-1.00;-1.00;101117;317;1003336;-35
2023/09/06 10:45:11;;;;;;;2.40;1.40;;;;;;;-128.00;-1.00;-1.00;101075;317;1003088;-37
2023/09/06 10:47:37;;;;;;;2.70;1.90;;;;;;;-128.00;-1.00;-1.00;101053;317;1004991;-31
2023/09/06 10:50:15;;;;;;;2.60;1.40;;;;;;;-128.00;-1.00;-1.00;101145;317;1003482;-35
2023/09/06 10:52:42;;;;;;;;;;;;;;;-128.00;-1.00;-1.00;101072;317;1004176;-35
2023/09/06 10:55:13;;;;;;;1.50;1.20;;;;;;;-128.00;-1.00;-1.00;101073;317;1003197;-31
2023/09/06 10:57:56;;;;;;;1.80;1.30;;;;;;;-128.00;-1.00;-1.00;101144;317;1002953;-32
2023/09/06 11:00:25;;;;;;;;;;;;;;;-128.00;-1.00;-1.00;101065;317;1003009;-31
2023/09/06 11:03:14;;;;;;;2.70;1.50;;;;;;;-128.00;-1.00;-1.00;100795;317;1004025;-31
2023/09/06 11:05:52;;;;;;;1.60;1.50;;;;;;;-128.00;-1.00;-1.00;101098;317;1003065;-35
2023/09/06 11:08:24;;;;;;;2.30;1.90;;;;;;;-128.00;-1.00;-1.00;101156;317;1003318;-35
2023/09/06 11:10:50;;;;;;;3.10;1.40;;;;;;;-128.00;-1.00;-1.00;101093;317;1002801;-38
2023/09/06 11:13:15;;;;;;;1.90;1.40;;;;;;;-128.00;-1.00;-1.00;101038;317;1002898;-31
2023/09/06 11:15:41;;;;;;;2.00;1.20;;;;;;;-128.00;-1.00;-1.00;101068;317;1003209;-31
2023/09/06 11:18:08;;;;;;;1.50;1.20;;;;;;;-128.00;-1.00;-1.00;101158;317;1003318;-35
2023/09/06 11:20:34;;;;;;;1.60;1.20;;;;;;;-128.00;-1.00;-1.00;100790;317;1002894;-32
2023/09/06 11:23:01;;;;;;;1.60;1.30;;;;;;;-128.00;-1.00;-1.00;101064;317;1003763;-32
2023/09/06 11:25:28;;;;;;;1.50;1.20;;;;;;;-128.00;-1.00;-1.00;101058;317;1003107;-35
2023/09/06 11:27:58;;;;;;;2.00;1.60;;;;;;;-128.00;-1.00;-1.00;100726;317;1004271;-35
2023/09/06 11:30:26;;;;;;;1.30;1.20;;;;;;;-128.00;-1.00;-1.00;101040;317;1003099;-30
2023/09/06 11:32:54;;;;;;;1.50;1.10;;;;;;;-128.00;-1.00;-1.00;101038;317;1003399;-31
2023/09/06 11:35:22;;;;;;;6.00;2.00;;;;;;;-128.00;-1.00;-1.00;101125;317;1003617;-35
2023/09/06 11:37:50;;;;;;;2.70;2.00;;;;;;;-128.00;-1.00;-1.00;100791;317;1002605;-32
2023/09/06 11:40:19;;;;;;;0.90;0.80;;;;;;;-128.00;-1.00;-1.00;101088;317;1003273;-35
2023/09/06 11:42:50;;;;;;;3.60;2.20;;;;;;;-128.00;-1.00;-1.00;101069;317;1003379;-31
2023/09/06 11:45:17;;;;;;;3.10;2.00;;;;;;;-128.00;-1.00;-1.00;101031;317;1003939;-35
2023/09/06 11:47:44;;;;;;;3.80;1.30;;;;;;;-128.00;-1.00;-1.00;101168;317;1003691;-36
2023/09/06 11:50:12;;;;;;;2.30;1.50;;;;;;;-128.00;-1.00;-1.00;101050;317;1003158;-33
2023/09/06 11:52:40;;;;;;;2.50;2.00;;;;;;;-128.00;-1.00;-1.00;100982;317;1003850;-35
2023/09/06 11:55:09;;;;;;;1.30;1.00;;;;;;;-128.00;-1.00;-1.00;101037;317;1002603;-35
2023/09/06 11:57:37;;;;;;;;;;;;;;;-128.00;-1.00;-1.00;101071;317;1003590;-31
2023/09/06 12:00:17;;;;;;;2.30;1.60;;;;;;;-128.00;-1.00;-1.00;101057;317;1003540;-33
2023/09/06 12:02:49;;;;;;;1.40;1.20;;;;;;;-128.00;-1.00;-1.00;100824;317;1003052;-34
2023/09/06 12:05:16;;;;;;;2.10;1.70;;;;;;;-128.00;-1.00;-1.00;101023;317;1002970;-35
2023/09/06 12:07:43;;;;;;;1.60;1.00;;;;;;;-128.00;-1.00;-1.00;101098;317;1004611;-32
2023/09/06 12:10:09;;;;;;;6.50;2.80;;;;;;;-128.00;-1.00;-1.00;101019;317;1003391;-34
2023/09/06 12:12:42;;;;;;;2.80;1.90;;;;;;;-128.00;-1.00;-1.00;101075;317;1002939;-37